Weather forecast for Mount Caburn

United Kingdom, 22 m
N50.859, E0.051


Sounding

Red line — air temperature ˚C.
Blue line — thermal bubble temperature ˚C.
Green line — dew point temperature ˚C.
Wind speed is in meters per second.

Table forecast

GFS 0.25˚ model

temp. wind gust humid. clouds prec. press. hpbl
Tue18 00:00 14 280.0 w 1 1 82 96 0.0 1017 23
03:00 14 69.0 ene 1 1 81 93 0.0 1016 29
06:00 14 67.0 ene 3 3 76 97 0.0 1015 81
09:00 15 63.0 ene 3 3 79 100 0.2 1015 79
12:00 17 93.0 e 3 4 81 98 0.8 1013 93
15:00 16 106.0 ese 4 4 85 100 0.8 1012 58
18:00 16 131.0 se 1 1 90 100 0.8 1011 25
21:00 16 31.0 nne 3 3 89 100 0.0 1010 24
 
Wed19 00:00 15 21.0 nne 3 3 93 93 2.6 1008 41
03:00 15 13.0 nne 6 9 95 100 3.8 1006 198
06:00 15 352.0 n 4 5 96 100 6.8 1007 130
09:00 15 295.0 wnw 4 5 96 100 3.6 1008 115
12:00 16 257.0 wsw 5 6 92 94 4.1 1010 139
15:00 15 248.0 wsw 8 10 88 12 0.4 1010 295
18:00 15 257.0 wsw 6 8 87 11 0.4 1010 212
21:00 15 264.0 w 5 6 90 85 0.0 1011 92
 
Thu20 00:00 15 280.0 w 5 6 86 92 0.0 1011 186
03:00 13 280.0 w 5 6 79 100 0.1 1011 280
06:00 13 301.0 wnw 5 6 76 100 0.1 1012 307
09:00 13 268.0 w 6 7 84 0 0.0 1013 412
12:00 14 245.0 wsw 8 9 81 0 0.0 1014 434
15:00 14 250.0 wsw 10 12 83 0 0.1 1014 510
18:00 15 260.0 w 8 11 83 9 0.1 1015 425
21:00 14 280.0 w 6 8 85 23 0.0 1017 358
 
Fri21 00:00 13 298.0 wnw 5 6 81 12 0.0 1017 357
03:00 13 278.0 w 3 5 78 0 0.0 1018 470
06:00 13 279.0 w 5 7 79 0 0.0 1018 630
09:00 13 264.0 w 5 7 79 5 0.0 1019 544
12:00 14 239.0 wsw 6 7 80 3 0.0 1019 505
15:00 14 248.0 wsw 8 9 80 0 0.0 1019 558
18:00 14 257.0 wsw 7 8 82 0 0.0 1020 426
21:00 14 271.0 w 5 6 85 0 0.0 1021 218
 
Sat22 00:00 14 277.0 w 3 3 87 0 0.0 1021 106
03:00 13 345.0 nnw 2 2 81 0 0.0 1021 70
06:00 13 36.0 ne 2 2 79 0 0.0 1021 80
09:00 14 174.0 s 0 0 75 0 0.0 1021 139
12:00 14 190.0 s 3 3 81 0 0.1 1021 204
15:00 15 235.0 sw 2 3 79 0 0.0 1020 220
18:00 15 217.0 sw 1 1 73 0 0.0 1019 107
21:00 15 62.0 ene 2 2 80 0 0.0 1020 41
 

0.015 s